Airfield :







YOU CAN JOIN US ON...

 
LOGIN :

Register | Disclaimer

   EN    FR    IT 

 









Legend :    VFR   Marginal VFR   IFR   Intensive IFR   Very Intensive IFR
Visi :
Ceiling :
>= 8 km
>= 3000ft
5 to 8 km
1000 to 3000 ft
1500m to 5 km
500 to 1000 ft
800 to 1500m
200 to 500 ft
< 800m
< 200 ft
Symbols :   Thunderstorms  Fog  Heavy snow  Heavy precipitations  Wind > 20 kt






- Airport Elevation : 76 ft
- IATA code : EGS


BIEG - Egilsstaðir

CURRENT METAR :
  • 240500Z 27013G28KT 9999 FEW050 M01/M08 Q0995 RMK WIND GAGNHEIDI 25041G54KT

EXPIRED METARs :
  • 240400Z 26019G38KT 9999 FEW050 M01/M08 Q0993 RMK WIND GAGNHEIDI 25049G67KT
  • 240300Z 25024G38KT 9999 FEW050 M01/M08 Q0992 RMK WIND GAGNHEIDI 24035G46KT

TAF TAF BIEG
Valid from the 24 at 06:00 until the 25 at 06:00 UTC


240449Z 2406/2506 28018G30KT 9999 FEW040 TX00/2506Z TNM05/2412Z
BECMG 2407/2410 28016KT
BECMG 2412/2414 20008KT
BECMG 2421/2500 01012KT 8000 -SN SCT018 BKN025
BECMG 2504/2506 04025KT



MET'MAP, your aeronautical weather chart ! - Copyright ORBIFLY December 2007 - Disclaimer

ORBIFLY MET'MAP TEAM :

Programming & Development : Alexandra Zaïnal
Concept & original design : Baudouin d'Aumeries
Assistance for programming : Marc-Olivier Méhu
Technical & hardware support : Manuel Goepfert

Contact : metmap@orbifly.com




SOURCES & CREDITS :

   NOAA